createdAt,value
2023-04-20T06:20:59.944Z,5.42
2023-04-20T06:30:59.892Z,5.53
2023-04-20T06:40:59.951Z,5.64
2023-04-20T06:50:59.812Z,5.61
2023-04-20T07:00:59.883Z,5.72
2023-04-20T07:10:59.882Z,5.99
2023-04-20T07:20:59.869Z,5.95
2023-04-20T07:31:00.095Z,6.12
2023-04-20T07:40:59.937Z,6.02
2023-04-20T07:50:59.939Z,6.46
2023-04-20T08:00:59.899Z,6.56
2023-04-20T08:11:00.031Z,6.52
2023-04-20T08:20:59.986Z,6.75
2023-04-20T08:31:00.002Z,6.89
2023-04-20T08:41:00.066Z,6.92
2023-04-20T08:51:00.297Z,7.27
2023-04-20T09:01:00.297Z,7.37
2023-04-20T09:11:00.129Z,7.51
2023-04-20T09:21:00.293Z,7.45
2023-04-20T09:31:00.280Z,8.26
2023-04-20T09:41:00.222Z,7.88
2023-04-20T09:51:00.187Z,7.97
2023-04-20T10:01:00.190Z,8.36
2023-04-20T10:11:00.178Z,8.35
2023-04-20T10:21:00.125Z,8.97
2023-04-20T10:31:00.274Z,8.70
2023-04-20T10:41:00.288Z,8.88
2023-04-20T10:51:00.347Z,8.72
2023-04-20T11:01:00.247Z,9.70
2023-04-20T11:11:00.383Z,10.32
2023-04-20T11:21:00.227Z,9.49
2023-04-20T11:31:00.419Z,9.36
2023-04-20T11:41:00.078Z,10.33
2023-04-20T11:51:00.231Z,10.48
2023-04-20T12:01:00.228Z,11.37
2023-04-20T12:11:00.207Z,11.33
2023-04-20T12:21:00.220Z,10.95
2023-04-20T12:31:01.489Z,11.33
2023-04-20T12:41:00.326Z,10.77
2023-04-20T12:51:00.438Z,10.25
2023-04-20T13:01:00.303Z,10.23
2023-04-20T13:11:00.353Z,10.28
2023-04-20T13:21:00.314Z,10.07
2023-04-20T13:31:00.290Z,9.90
2023-04-20T13:41:00.348Z,9.53
2023-04-20T13:51:00.430Z,9.44
2023-04-20T14:01:00.439Z,9.16
2023-04-20T14:11:00.424Z,9.02
2023-04-20T14:21:00.465Z,9.01
2023-04-20T14:31:00.696Z,8.60
2023-04-20T14:41:00.588Z,8.44
2023-04-20T14:51:00.779Z,8.50
2023-04-20T15:01:00.786Z,8.19
2023-04-20T15:11:00.595Z,8.02
2023-04-20T15:21:00.668Z,7.62
2023-04-20T15:31:00.604Z,7.01
2023-04-20T15:41:00.842Z,6.71
2023-04-20T15:51:00.617Z,6.73
2023-04-20T16:01:00.713Z,6.82
2023-04-20T16:11:00.596Z,7.04
2023-04-20T16:21:00.858Z,7.32
2023-04-20T16:31:01.014Z,7.62
2023-04-20T16:41:00.810Z,7.96
2023-04-20T16:51:00.962Z,8.29
2023-04-20T17:01:00.923Z,8.37
2023-04-20T17:11:00.834Z,8.47
2023-04-20T17:21:00.940Z,8.62
2023-04-20T17:31:00.760Z,8.64
2023-04-20T17:41:00.753Z,8.67
2023-04-20T17:51:01.206Z,8.70
2023-04-20T18:01:01.002Z,8.68
2023-04-20T18:11:00.888Z,8.75
2023-04-20T18:21:00.940Z,8.71
2023-04-20T18:31:01.029Z,8.70
2023-04-20T18:41:00.994Z,8.69
2023-04-20T18:51:00.938Z,8.68
2023-04-20T19:01:01.017Z,8.65
2023-04-20T19:11:00.898Z,8.64
2023-04-20T19:21:01.057Z,8.52
